createdAt,value
2019-02-08T00:01:52.893Z,270.63
2019-02-08T00:06:56.678Z,119.17
2019-02-08T00:12:00.448Z,225.77
2019-02-08T00:17:04.251Z,64.97
2019-02-08T00:22:08.703Z,207.43
2019-02-08T00:27:12.522Z,286.03
2019-02-08T00:32:16.237Z,195.37
2019-02-08T00:37:19.925Z,119.13
2019-02-08T00:42:23.945Z,308.33
2019-02-08T00:47:27.978Z,61.50
2019-02-08T00:52:31.941Z,192.23
2019-02-08T00:57:35.633Z,365.00
2019-02-08T01:02:39.914Z,200.70
2019-02-08T01:07:45.637Z,254.33
2019-02-08T01:12:49.397Z,231.20
2019-02-08T01:17:53.611Z,80.50
2019-02-08T01:22:57.502Z,81.60
2019-02-08T01:28:01.310Z,133.87
2019-02-08T01:33:05.582Z,412.60
2019-02-08T01:38:09.316Z,81.57
2019-02-08T01:43:13.142Z,272.50
2019-02-08T01:48:16.878Z,83.93
2019-02-08T01:53:20.647Z,469.30
2019-02-08T01:58:24.663Z,70.77
2019-02-08T02:03:28.471Z,373.30
2019-02-08T02:08:32.278Z,459.00
2019-02-08T02:13:36.083Z,153.17
2019-02-08T02:18:39.810Z,137.10
2019-02-08T02:23:43.529Z,77.40
2019-02-08T02:28:47.267Z,305.40
2019-02-08T02:33:50.959Z,269.73
2019-02-08T02:38:55.075Z,184.17
2019-02-08T02:43:58.779Z,149.47
2019-02-08T02:49:02.555Z,226.23
2019-02-08T02:54:06.451Z,135.60
2019-02-08T02:59:10.428Z,459.83
2019-02-08T03:04:14.262Z,231.27
2019-02-08T03:09:18.090Z,269.43
2019-02-08T03:14:22.159Z,155.57
2019-02-08T03:19:26.206Z,179.07
2019-02-08T03:24:29.918Z,374.23
2019-02-08T03:29:34.375Z,257.77
2019-02-08T03:34:38.087Z,284.83
2019-02-08T03:39:42.183Z,152.00
2019-02-08T03:44:45.938Z,297.57
2019-02-08T03:49:49.662Z,469.37
2019-02-08T03:54:53.432Z,386.23
2019-02-08T03:59:57.173Z,520.77
2019-02-08T04:05:01.042Z,433.80
2019-02-08T04:10:06.995Z,502.07
2019-02-08T04:15:13.430Z,345.73
2019-02-08T04:20:17.748Z,367.13
2019-02-08T04:25:21.607Z,211.73
2019-02-08T04:30:27.178Z,460.53
2019-02-08T04:35:31.158Z,269.30
2019-02-08T04:40:34.892Z,364.23
2019-02-08T04:45:38.615Z,373.87
2019-02-08T04:50:42.337Z,343.37
2019-02-08T04:55:46.081Z,279.83
2019-02-08T05:00:49.888Z,304.37
2019-02-08T05:05:53.612Z,360.63
2019-02-08T05:10:57.600Z,398.43
2019-02-08T05:16:01.413Z,267.67
2019-02-08T05:21:05.156Z,228.40
2019-02-08T05:26:08.976Z,310.23
2019-02-08T05:31:12.706Z,319.37
2019-02-08T05:36:16.409Z,210.73
2019-02-08T05:41:20.121Z,277.63
2019-02-08T05:46:23.837Z,191.63
2019-02-08T05:51:27.706Z,113.10
2019-02-08T05:56:31.412Z,255.90
2019-02-08T06:01:35.106Z,150.10
2019-02-08T06:06:38.852Z,224.33
2019-02-08T06:11:42.562Z,155.40
2019-02-08T06:16:47.062Z,319.50
2019-02-08T06:21:51.113Z,157.17
2019-02-08T06:26:54.899Z,332.47
2019-02-08T06:31:58.767Z,182.70
2019-02-08T06:37:02.540Z,279.40
2019-02-08T06:42:06.338Z,103.17
2019-02-08T06:47:10.066Z,189.67
2019-02-08T06:52:14.125Z,145.97
2019-02-08T06:57:31.461Z,154.70
2019-02-08T07:03:00.765Z,174.00
2019-02-08T07:08:18.673Z,63.10
2019-02-08T07:13:32.013Z,362.53
2019-02-08T07:18:43.916Z,95.17
2019-02-08T07:24:04.550Z,119.47
2019-02-08T07:29:16.899Z,138.80
2019-02-08T07:34:34.685Z,348.47
2019-02-08T07:40:13.858Z,243.80
2019-02-08T07:45:40.697Z,205.07
2019-02-08T07:50:50.272Z,55.67
2019-02-08T07:56:00.621Z,255.83
2019-02-08T08:01:23.425Z,206.57
2019-02-08T08:06:40.557Z,142.77
2019-02-08T08:11:49.889Z,63.23
2019-02-08T08:17:07.468Z,108.93
2019-02-08T08:22:22.347Z,42.03
2019-02-08T08:27:57.703Z,274.33
2019-02-08T08:33:19.519Z,197.30
2019-02-08T08:39:19.841Z,52.67
2019-02-08T08:44:49.190Z,425.93
2019-02-08T08:50:27.360Z,192.53
2019-02-08T08:56:03.842Z,85.27
2019-02-08T09:01:28.448Z,144.47
2019-02-08T09:07:00.444Z,459.73
2019-02-08T09:12:32.226Z,213.13
2019-02-08T09:18:00.767Z,196.63
2019-02-08T09:23:38.835Z,153.80
2019-02-08T09:29:09.694Z,222.53
2019-02-08T09:35:11.819Z,169.17
2019-02-08T09:41:03.524Z,127.73
2019-02-08T09:47:02.426Z,52.43
2019-02-08T09:52:41.942Z,205.20
2019-02-08T09:58:07.387Z,129.50
2019-02-08T10:03:47.227Z,72.60
2019-02-08T10:09:23.210Z,160.53
2019-02-08T10:15:19.119Z,220.77
2019-02-08T10:21:10.246Z,191.97
2019-02-08T10:26:56.805Z,403.03
2019-02-08T10:32:29.668Z,382.73
2019-02-08T10:38:09.976Z,258.23
2019-02-08T10:43:46.934Z,303.13
2019-02-08T10:49:56.292Z,297.97
2019-02-08T10:55:47.745Z,57.23
2019-02-08T11:01:42.003Z,192.63
2019-02-08T11:07:18.027Z,126.43
2019-02-08T11:13:27.159Z,203.67
2019-02-08T11:18:55.360Z,137.63
2019-02-08T11:23:59.317Z,97.47
2019-02-08T11:29:06.975Z,172.77
2019-02-08T11:34:11.522Z,278.13
2019-02-08T11:39:17.910Z,214.40
2019-02-08T11:44:22.779Z,194.67
2019-02-08T11:49:26.958Z,254.53
2019-02-08T11:54:31.138Z,420.87
2019-02-08T11:59:35.641Z,286.07
2019-02-08T12:04:40.478Z,204.60
2019-02-08T12:09:44.486Z,578.20
2019-02-08T12:14:48.387Z,315.23
2019-02-08T12:19:52.516Z,491.67
2019-02-08T12:24:56.612Z,306.00
2019-02-08T12:30:00.627Z,260.53
2019-02-08T12:35:05.954Z,511.20
2019-02-08T12:40:10.103Z,444.30
2019-02-08T12:45:14.739Z,356.67
2019-02-08T12:50:21.054Z,362.03
2019-02-08T12:55:24.899Z,372.60
2019-02-08T13:00:29.450Z,561.17
2019-02-08T13:05:36.485Z,446.07
2019-02-08T13:10:40.773Z,396.57
2019-02-08T13:15:44.704Z,318.40
2019-02-08T13:20:48.757Z,555.13
2019-02-08T13:25:52.619Z,522.17
2019-02-08T13:30:56.447Z,439.70
2019-02-08T13:36:04.663Z,365.53
2019-02-08T13:41:08.761Z,346.87
2019-02-08T13:46:15.600Z,485.87
2019-02-08T13:51:19.880Z,553.27
2019-02-08T13:56:27.671Z,444.07
2019-02-08T14:01:31.581Z,594.00
2019-02-08T14:06:35.658Z,653.77
2019-02-08T14:11:42.369Z,543.63
2019-02-08T14:16:47.075Z,729.73
2019-02-08T14:21:51.018Z,619.70
2019-02-08T14:26:55.112Z,610.50
2019-02-08T14:32:02.272Z,888.43
2019-02-08T14:37:06.826Z,535.73
2019-02-08T14:42:10.662Z,785.57
2019-02-08T14:47:14.662Z,737.70
2019-02-08T14:52:18.824Z,782.00
2019-02-08T14:57:22.630Z,808.50
2019-02-08T15:02:26.553Z,840.60
2019-02-08T15:07:31.231Z,723.17
2019-02-08T15:12:35.051Z,717.73
2019-02-08T15:17:39.917Z,594.43
2019-02-08T15:22:44.095Z,728.80
2019-02-08T15:27:48.188Z,457.70
2019-02-08T15:32:52.582Z,785.47
2019-02-08T15:37:56.559Z,692.93
2019-02-08T15:43:00.844Z,660.70
2019-02-08T15:48:05.201Z,543.67
2019-02-08T15:53:09.490Z,896.80
2019-02-08T15:58:13.923Z,860.23
2019-02-08T16:03:18.749Z,866.83
2019-02-08T16:08:22.852Z,831.97
2019-02-08T16:13:27.130Z,687.60
2019-02-08T16:18:31.286Z,912.23
2019-02-08T16:23:35.472Z,657.33
2019-02-08T16:28:39.949Z,697.00
2019-02-08T16:33:44.248Z,589.57
2019-02-08T16:38:49.845Z,568.43
2019-02-08T16:43:53.799Z,732.90
2019-02-08T16:48:58.231Z,696.40
2019-02-08T16:54:02.119Z,537.00
2019-02-08T16:59:07.801Z,468.60
2019-02-08T17:04:11.637Z,568.53
2019-02-08T17:09:15.635Z,532.17
2019-02-08T17:14:19.744Z,570.30
2019-02-08T17:19:24.010Z,504.57
2019-02-08T17:24:32.429Z,374.33
2019-02-08T17:29:36.570Z,652.97
2019-02-08T17:34:40.982Z,393.87
2019-02-08T17:39:45.210Z,484.53
2019-02-08T17:44:49.113Z,435.23
2019-02-08T17:49:53.116Z,543.20
2019-02-08T17:54:57.155Z,561.43
2019-02-08T18:00:03.792Z,363.03
2019-02-08T18:05:08.183Z,473.73
2019-02-08T18:10:15.711Z,386.30
2019-02-08T18:15:20.982Z,229.10
2019-02-08T18:20:27.558Z,326.23
2019-02-08T18:25:31.643Z,382.20
2019-02-08T18:30:36.526Z,390.83
2019-02-08T18:35:40.695Z,487.97
2019-02-08T18:40:44.883Z,528.50
2019-02-08T18:45:49.211Z,499.67
2019-02-08T18:50:56.616Z,611.80
2019-02-08T18:56:00.698Z,641.17
2019-02-08T19:01:06.321Z,595.03
2019-02-08T19:06:10.714Z,773.67
2019-02-08T19:11:18.046Z,635.57
2019-02-08T19:16:23.217Z,643.27
2019-02-08T19:21:27.147Z,632.43
2019-02-08T19:26:33.883Z,594.40
2019-02-08T19:31:41.882Z,708.47
2019-02-08T19:36:46.102Z,712.57
2019-02-08T19:41:50.407Z,985.83
2019-02-08T19:46:54.205Z,758.20
2019-02-08T19:51:57.943Z,695.17
2019-02-08T19:57:02.195Z,633.60
2019-02-08T20:02:06.470Z,493.93
2019-02-08T20:07:13.193Z,665.43
2019-02-08T20:12:17.397Z,762.33
2019-02-08T20:17:21.471Z,469.10
2019-02-08T20:22:25.552Z,702.23
2019-02-08T20:27:29.395Z,588.23
2019-02-08T20:32:33.794Z,565.10
2019-02-08T20:37:38.655Z,547.27
2019-02-08T20:42:42.743Z,617.73
2019-02-08T20:47:46.930Z,513.07
2019-02-08T20:52:52.924Z,604.67
2019-02-08T20:57:57.106Z,393.93
2019-02-08T21:03:01.626Z,420.80
2019-02-08T21:08:07.010Z,611.63
2019-02-08T21:13:11.783Z,603.53
2019-02-08T21:18:15.583Z,389.00
2019-02-08T21:23:19.356Z,407.67
2019-02-08T21:28:23.679Z,546.63
2019-02-08T21:33:27.813Z,521.00
2019-02-08T21:38:32.039Z,516.53
2019-02-08T21:43:35.859Z,573.10
2019-02-08T21:48:39.679Z,349.23
2019-02-08T21:53:43.950Z,394.83
2019-02-08T21:58:47.830Z,456.00
2019-02-08T22:03:51.690Z,352.87
2019-02-08T22:08:55.610Z,425.00
2019-02-08T22:13:59.635Z,538.40
2019-02-08T22:19:04.116Z,246.10
2019-02-08T22:24:08.115Z,278.63
2019-02-08T22:29:14.191Z,356.43
2019-02-08T22:34:18.287Z,251.10
2019-02-08T22:39:22.316Z,368.37
2019-02-08T22:44:26.755Z,476.60
2019-02-08T22:49:31.746Z,357.20
2019-02-08T22:54:38.685Z,414.90
2019-02-08T22:59:45.943Z,376.93
2019-02-08T23:04:49.650Z,182.63
2019-02-08T23:09:53.995Z,307.50
2019-02-08T23:14:57.891Z,284.73
2019-02-08T23:20:01.965Z,428.93
2019-02-08T23:25:06.621Z,507.00
2019-02-08T23:30:11.506Z,186.63
2019-02-08T23:35:18.510Z,191.80
2019-02-08T23:40:22.874Z,440.47
2019-02-08T23:45:26.872Z,426.67
2019-02-08T23:50:30.773Z,352.80
2019-02-08T23:55:34.762Z,253.20
